Time;durP1;ratioP1;P1;durP2;ratioP2;P2;SDS_P1;SDS_P2;PMS_P1;PMS_P2;Temp;Humidity;BMP_temperature;BMP_pressure;BME280_temperature;BME280_humidity;BME280_pressure;Samples;Min_cycle;Max_cycle;Signal;HPM_P1;HPM_P2
2022/07/09 00:01:47;;;;;;;11.02;5.78;;;;;;;18.55;67.64;102745.44;5035017;28;20105;-64
2022/07/09 00:04:12;;;;;;;11.88;5.75;;;;;;;18.46;67.92;102742.69;5034854;28;20029;-65
2022/07/09 00:06:38;;;;;;;10.45;5.47;;;;;;;18.45;67.59;102748.91;5035005;28;20091;-64
2022/07/09 00:09:04;;;;;;;13.27;6.10;;;;;;;18.43;68.05;102743.53;5034954;28;20507;-64
2022/07/09 00:11:29;;;;;;;11.80;6.05;;;;;;;18.50;67.72;102748.06;5035016;28;20030;-64
2022/07/09 00:13:54;;;;;;;10.40;6.03;;;;;;;18.50;67.90;102741.81;5034596;28;20403;-64
2022/07/09 00:16:20;;;;;;;9.23;6.07;;;;;;;18.51;67.59;102740.94;5034843;28;20364;-64
2022/07/09 00:18:45;;;;;;;11.50;6.07;;;;;;;18.53;67.96;102749.88;5034601;28;20108;-65
2022/07/09 00:21:11;;;;;;;9.52;5.97;;;;;;;18.61;67.51;102742.78;5034708;28;20437;-64
2022/07/09 00:23:36;;;;;;;9.70;6.25;;;;;;;18.70;67.56;102744.69;5034626;28;20113;-64
2022/07/09 00:26:01;;;;;;;9.50;6.40;;;;;;;18.61;68.10;102744.56;5034813;28;20029;-64
2022/07/09 00:28:27;;;;;;;10.32;5.97;;;;;;;18.63;67.49;102745.47;5034519;28;20380;-64
2022/07/09 00:30:53;;;;;;;10.85;6.20;;;;;;;18.62;68.01;102751.72;5034473;28;20076;-65
2022/07/09 00:33:18;;;;;;;11.80;6.18;;;;;;;18.59;67.60;102746.34;5034645;28;20026;-65
2022/07/09 00:35:43;;;;;;;9.80;6.55;;;;;;;18.57;68.05;102745.44;5034091;28;20513;-64
2022/07/09 00:38:09;;;;;;;12.10;6.43;;;;;;;18.55;67.68;102739.19;5033303;28;20052;-64
2022/07/09 00:40:34;;;;;;;8.40;6.32;;;;;;;18.41;68.81;102747.06;5034300;28;20025;-64
2022/07/09 00:43:00;;;;;;;11.20;6.70;;;;;;;18.37;68.87;102743.50;5034453;28;20063;-64
2022/07/09 00:45:26;;;;;;;10.13;6.40;;;;;;;18.38;68.74;102744.41;5033949;28;20037;-64
2022/07/09 00:47:51;;;;;;;11.35;6.40;;;;;;;18.29;69.26;102744.31;5033994;28;20100;-64
2022/07/09 00:50:17;;;;;;;9.55;6.57;;;;;;;18.34;68.34;102748.81;5034077;28;20021;-64
2022/07/09 00:52:43;;;;;;;9.60;6.60;;;;;;;18.35;68.38;102745.25;5034100;28;20037;-64
2022/07/09 00:55:10;;;;;;;7.75;6.68;;;;;;;18.34;68.59;102745.25;5034092;28;20029;-64
2022/07/09 00:57:35;;;;;;;11.80;6.63;;;;;;;18.26;68.60;102735.38;5034100;28;20078;-64
2022/07/09 01:00:01;;;;;;;9.77;6.95;;;;;;;18.27;69.16;102745.19;5034011;28;20045;-64
2022/07/09 01:02:27;;;;;;;12.18;7.20;;;;;;;18.20;69.72;102753.13;5032995;28;20036;-64
2022/07/09 01:04:52;;;;;;;11.45;7.07;;;;;;;18.23;69.13;102743.34;5033738;28;20022;-65
2022/07/09 01:07:18;;;;;;;13.50;6.55;;;;;;;18.10;69.60;102738.78;5033857;28;20032;-64
2022/07/09 01:09:44;;;;;;;11.50;7.43;;;;;;;18.11;69.68;102740.56;5033846;28;20104;-64
2022/07/09 01:12:09;;;;;;;8.82;7.03;;;;;;;18.11;69.67;102745.00;5033900;28;20029;-64
2022/07/09 01:14:34;;;;;;;12.55;7.20;;;;;;;18.08;69.39;102736.97;5033745;28;20129;-64
2022/07/09 01:17:02;;;;;;;14.10;7.40;;;;;;;17.93;70.23;102729.69;5033763;28;20112;-64
2022/07/09 01:19:28;;;;;;;13.70;7.30;;;;;;;17.84;70.95;102734.94;5033667;28;20025;-64
2022/07/09 01:21:54;;;;;;;14.65;7.60;;;;;;;17.73;71.21;102724.09;5033684;28;20096;-64
2022/07/09 01:24:21;;;;;;;17.30;7.60;;;;;;;17.70;71.35;102726.72;5033625;28;20051;-64
2022/07/09 01:26:47;;;;;;;13.02;7.20;;;;;;;17.66;71.44;102722.22;5033380;28;20029;-65
2022/07/09 01:29:13;;;;;;;13.23;7.55;;;;;;;17.55;71.94;102723.88;5033397;28;20025;-64
2022/07/09 01:31:38;;;;;;;12.32;7.78;;;;;;;17.56;71.94;102722.97;5033622;28;20519;-64
2022/07/09 01:34:03;;;;;;;12.43;7.78;;;;;;;17.64;71.57;102718.63;5033324;28;20029;-64
2022/07/09 01:36:29;;;;;;;10.65;7.68;;;;;;;17.50;72.07;102708.66;5033395;28;20465;-64
2022/07/09 01:38:54;;;;;;;10.23;7.40;;;;;;;17.56;71.71;102709.59;5033374;28;20025;-64
2022/07/09 01:41:19;;;;;;;13.07;7.85;;;;;;;17.60;71.82;102704.34;5033479;28;20034;-64
2022/07/09 01:43:45;;;;;;;10.75;8.40;;;;;;;17.57;71.91;102706.97;5033278;28;20499;-64
2022/07/09 01:46:10;;;;;;;16.42;8.10;;;;;;;17.61;72.13;102707.91;5033121;28;20041;-64
2022/07/09 01:48:36;;;;;;;11.27;7.82;;;;;;;17.63;71.97;102707.03;5032983;28;20037;-64
2022/07/09 01:51:01;;;;;;;9.85;7.68;;;;;;;17.69;71.56;102703.56;5033264;28;20068;-64
2022/07/09 01:53:27;;;;;;;12.98;7.93;;;;;;;17.70;71.33;102708.91;5033350;28;20485;-64
2022/07/09 01:55:53;;;;;;;10.82;7.88;;;;;;;17.69;71.02;102699.09;5033162;28;20052;-64
2022/07/09 01:58:18;;;;;;;12.38;7.68;;;;;;;17.67;70.80;102700.84;5031942;28;20425;-64
2022/07/09 02:00:44;;;;;;;14.90;7.68;;;;;;;17.62;70.78;102691.88;5033073;28;20025;-64
2022/07/09 02:03:09;;;;;;;10.52;8.10;;;;;;;17.60;71.49;102696.31;5032806;28;20029;-64
2022/07/09 02:05:35;;;;;;;12.13;7.88;;;;;;;17.53;71.78;102698.03;5033275;28;20061;-64
2022/07/09 02:08:00;;;;;;;12.93;7.82;;;;;;;17.52;71.71;102703.34;5032875;28;20054;-64
2022/07/09 02:10:25;;;;;;;9.63;7.40;;;;;;;17.55;71.31;102694.47;5032906;28;20071;-64
2022/07/09 02:12:51;;;;;;;10.68;7.60;;;;;;;17.49;71.47;102698.88;5032973;28;20510;-64
2022/07/09 02:15:16;;;;;;;14.45;8.15;;;;;;;17.44;71.63;102695.25;5032578;28;20498;-64
2022/07/09 02:17:42;;;;;;;11.93;7.70;;;;;;;17.37;71.43;102687.13;5032990;28;20029;-65
2022/07/09 02:20:08;;;;;;;14.48;7.65;;;;;;;17.36;71.17;102688.91;5032931;28;20061;-64
2022/07/09 02:22:34;;;;;;;8.50;7.00;;;;;;;17.31;71.20;102687.97;5032860;28;20030;-64
2022/07/09 02:24:59;;;;;;;13.35;7.60;;;;;;;17.31;71.28;102695.09;5032818;28;20026;-64
2022/07/09 02:27:25;;;;;;;17.50;8.20;;;;;;;17.32;71.76;102692.41;5031453;28;20026;-64
2022/07/09 02:29:50;;;;;;;11.55;7.95;;;;;;;17.36;71.08;102693.34;5032614;28;20104;-64
2022/07/09 02:32:16;;;;;;;11.18;7.78;;;;;;;17.42;70.55;102690.75;5032585;28;20083;-65
2022/07/09 02:34:41;;;;;;;12.05;7.82;;;;;;;17.40;70.63;102690.75;5031445;28;20068;-64
2022/07/09 02:37:07;;;;;;;10.13;7.50;;;;;;;17.45;70.14;102689.00;5032669;28;20032;-64
2022/07/09 02:39:33;;;;;;;11.20;7.00;;;;;;;17.42;70.21;102680.94;5032991;28;20026;-64
2022/07/09 02:41:59;;;;;;;10.73;7.35;;;;;;;17.39;70.08;102680.94;5032624;28;20087;-64
2022/07/09 02:44:24;;;;;;;10.52;7.25;;;;;;;17.31;70.48;102673.72;5032669;28;20033;-64
2022/07/09 02:46:50;;;;;;;13.32;7.82;;;;;;;17.27;70.84;102675.44;5032499;28;20112;-64
2022/07/09 02:49:15;;;;;;;9.93;7.80;;;;;;;17.25;70.98;102669.16;5032492;28;20026;-64
2022/07/09 02:51:41;;;;;;;11.35;7.97;;;;;;;17.25;70.82;102670.06;5032715;28;20080;-64
2022/07/09 02:54:06;;;;;;;12.23;7.78;;;;;;;17.09;71.51;102670.75;5032665;28;20104;-64
2022/07/09 02:56:32;;;;;;;14.20;8.32;;;;;;;16.95;72.33;102661.66;5032564;28;20479;-65
2022/07/09 02:58:57;;;;;;;13.00;8.70;;;;;;;16.84;72.97;102661.53;5032284;28;20036;-64
2022/07/09 03:01:23;;;;;;;11.60;8.55;;;;;;;16.79;73.05;102663.22;5032426;28;20053;-65
2022/07/09 03:03:49;;;;;;;16.05;9.13;;;;;;;16.83;72.96;102662.41;5032399;28;20087;-65
2022/07/09 03:06:14;;;;;;;11.70;9.13;;;;;;;16.85;72.92;102671.31;5032508;28;20426;-65
2022/07/09 03:08:40;;;;;;;15.52;9.40;;;;;;;16.89;72.95;102667.81;5032402;28;20026;-65
2022/07/09 03:11:09;;;;;;;13.07;9.25;;;;;;;16.91;72.66;102670.50;5034725;28;20033;-64
2022/07/09 03:13:35;;;;;;;11.98;9.40;;;;;;;16.90;72.35;102666.94;5036122;28;20080;-64
2022/07/09 03:16:02;;;;;;;11.43;8.63;;;;;;;16.87;72.75;102672.22;5034510;28;20036;-65
2022/07/09 03:18:27;;;;;;;14.05;9.02;;;;;;;16.90;72.71;102664.25;5036032;28;20490;-64
2022/07/09 03:20:52;;;;;;;10.68;8.85;;;;;;;16.88;72.57;102674.03;5036006;28;20040;-66
2022/07/09 03:23:18;;;;;;;11.25;9.18;;;;;;;16.81;73.00;102665.91;5036138;28;20471;-66
2022/07/09 03:25:43;;;;;;;11.43;9.02;;;;;;;16.72;73.44;102669.31;5035714;28;20130;-64
2022/07/09 03:28:09;;;;;;;14.48;9.63;;;;;;;16.66;73.81;102666.53;5035713;28;20057;-64
2022/07/09 03:30:34;;;;;;;11.93;9.50;;;;;;;16.65;73.42;102664.75;5035516;28;20053;-65
2022/07/09 03:33:00;;;;;;;14.60;10.10;;;;;;;16.65;73.58;102665.63;5035579;28;20467;-64
2022/07/09 03:35:26;;;;;;;12.27;9.48;;;;;;;16.68;73.19;102664.81;5034235;28;20080;-64
2022/07/09 03:37:51;;;;;;;15.98;10.05;;;;;;;16.73;73.27;102663.13;5035626;28;20057;-64
2022/07/09 03:40:16;;;;;;;14.43;9.38;;;;;;;16.79;72.41;102671.25;5035590;28;20399;-64
2022/07/09 03:42:42;;;;;;;13.68;9.18;;;;;;;16.84;72.09;102668.63;5035437;28;20037;-64
2022/07/09 03:45:07;;;;;;;13.35;9.40;;;;;;;16.82;71.90;102676.59;5035543;28;20033;-64
2022/07/09 03:47:33;;;;;;;11.07;8.80;;;;;;;16.83;72.01;102670.41;5035199;28;20097;-65
2022/07/09 03:49:58;;;;;;;11.10;9.40;;;;;;;16.78;72.51;102672.09;5035664;28;20029;-65
2022/07/09 03:52:24;;;;;;;13.55;9.95;;;;;;;16.72;72.67;102664.91;5035375;28;20104;-64
2022/07/09 03:54:49;;;;;;;13.63;10.13;;;;;;;16.63;73.52;102664.75;5035293;28;20459;-64
2022/07/09 03:57:14;;;;;;;13.57;10.25;;;;;;;16.57;73.69;102664.63;5035362;28;20029;-64
2022/07/09 03:59:40;;;;;;;16.65;11.23;;;;;;;16.47;74.62;102665.38;5034983;28;20022;-64
2022/07/09 04:02:05;;;;;;;13.73;11.23;;;;;;;16.44;74.65;102662.66;5035075;28;20099;-64
2022/07/09 04:04:31;;;;;;;14.80;10.25;;;;;;;16.49;74.40;102664.53;5034990;28;20414;-64
2022/07/09 04:06:56;;;;;;;13.32;10.10;;;;;;;16.46;74.20;102664.47;5035101;28;20415;-64
2022/07/09 04:09:22;;;;;;;14.38;10.65;;;;;;;16.45;74.76;102659.13;5034884;28;20025;-64
2022/07/09 04:11:47;;;;;;;18.67;11.35;;;;;;;16.38;75.43;102660.78;5035018;28;20501;-64
2022/07/09 04:14:14;;;;;;;14.45;11.82;;;;;;;16.40;75.75;102666.13;5034799;28;20060;-64
2022/07/09 04:16:40;;;;;;;18.63;12.20;;;;;;;16.46;75.61;102661.81;5033496;28;20052;-64
2022/07/09 04:19:05;;;;;;;17.70;12.15;;;;;;;16.45;75.56;102662.69;5035047;28;20029;-64
2022/07/09 04:21:30;;;;;;;23.95;12.55;;;;;;;16.41;75.92;102662.63;5033890;28;20025;-64
2022/07/09 04:23:56;;;;;;;17.00;12.38;;;;;;;16.44;76.26;102660.88;5034770;28;20479;-64
2022/07/09 04:26:21;;;;;;;17.48;13.13;;;;;;;16.40;76.08;102653.72;5034694;28;20033;-64
2022/07/09 04:28:47;;;;;;;16.15;12.73;;;;;;;16.42;76.22;102651.97;5034582;28;20479;-64
2022/07/09 04:31:13;;;;;;;20.95;14.32;;;;;;;16.43;76.09;102645.75;5034403;28;20505;-64
2022/07/09 04:33:38;;;;;;;22.75;15.23;;;;;;;16.36;76.63;102649.22;5034395;28;20466;-64
2022/07/09 04:36:04;;;;;;;24.73;15.90;;;;;;;16.34;77.03;102653.63;5034427;28;20026;-64
2022/07/09 04:38:30;;;;;;;21.60;16.77;;;;;;;16.37;77.26;102659.00;5034450;28;20031;-64
2022/07/09 04:40:56;;;;;;;19.45;15.73;;;;;;;16.47;76.97;102660.03;5034356;28;20390;-64
2022/07/09 04:43:21;;;;;;;21.70;17.00;;;;;;;16.70;76.70;102653.28;5034313;28;20025;-64
2022/07/09 04:45:47;;;;;;;26.38;17.20;;;;;;;16.80;76.43;102657.00;5034504;28;20444;-64
2022/07/09 04:48:12;;;;;;;24.33;18.05;;;;;;;16.88;76.56;102654.44;5034290;28;20555;-64
2022/07/09 04:50:38;;;;;;;26.42;19.02;;;;;;;16.87;77.02;102658.88;5034465;28;20469;-64
2022/07/09 04:53:03;;;;;;;22.38;17.75;;;;;;;17.06;76.59;102661.81;5034231;28;20030;-64
2022/07/09 04:55:28;;;;;;;28.15;19.60;;;;;;;17.16;76.75;102658.38;5033892;28;20064;-64
2022/07/09 04:57:54;;;;;;;27.80;19.40;;;;;;;17.34;76.72;102663.03;5033980;28;20018;-64
2022/07/09 05:00:19;;;;;;;28.35;19.92;;;;;;;17.46;76.71;102656.06;5033823;28;20112;-64
2022/07/09 05:02:45;;;;;;;28.10;19.88;;;;;;;17.70;75.48;102658.09;5033958;28;20399;-64
2022/07/09 05:05:11;;;;;;;29.15;20.05;;;;;;;17.85;74.97;102654.69;5033821;28;20021;-64
2022/07/09 05:07:37;;;;;;;29.08;20.98;;;;;;;17.94;74.50;102656.56;5033945;28;20509;-64
2022/07/09 05:10:03;;;;;;;31.52;20.67;;;;;;;17.98;74.95;102656.59;5033719;28;20033;-65
2022/07/09 05:12:30;;;;;;;31.10;21.58;;;;;;;17.88;75.46;102653.84;5033874;28;20032;-65
2022/07/09 05:14:56;;;;;;;28.15;20.77;;;;;;;17.94;75.72;102644.13;5033301;28;20333;-65
2022/07/09 05:17:22;;;;;;;29.90;21.65;;;;;;;18.04;75.10;102650.44;5033731;28;20503;-65
2022/07/09 05:19:47;;;;;;;36.88;22.50;;;;;;;18.05;75.37;102649.53;5033952;28;20022;-65
2022/07/09 05:22:13;;;;;;;30.40;20.73;;;;;;;18.11;75.53;102651.38;5033554;28;20386;-65
2022/07/09 05:24:40;;;;;;;30.60;20.75;;;;;;;18.27;74.82;102645.25;5033704;28;20470;-65
2022/07/09 05:27:06;;;;;;;29.88;21.88;;;;;;;18.32;74.93;102647.97;5033517;28;20087;-65
2022/07/09 05:29:32;;;;;;;32.53;21.00;;;;;;;18.24;75.29;102642.56;5033263;28;20061;-65
2022/07/09 05:31:58;;;;;;;30.52;21.23;;;;;;;18.24;75.53;102638.13;5033284;28;20083;-65
2022/07/09 05:34:24;;;;;;;31.50;23.05;;;;;;;18.24;76.66;102651.50;5033343;28;20029;-66
2022/07/09 05:36:51;;;;;;;33.75;23.50;;;;;;;18.30;75.52;102650.66;5033600;28;20037;-65
2022/07/09 05:39:17;;;;;;;34.15;24.85;;;;;;;18.25;76.12;102645.25;5033549;28;20129;-65
2022/07/09 05:41:43;;;;;;;33.15;22.88;;;;;;;18.27;76.20;102645.25;5033534;28;20032;-66
2022/07/09 05:44:09;;;;;;;32.40;22.75;;;;;;;18.23;76.24;102646.13;5033335;28;20467;-65
2022/07/09 05:46:34;;;;;;;28.70;22.02;;;;;;;18.16;76.62;102650.53;5033267;28;20045;-65
2022/07/09 05:49:00;;;;;;;32.55;23.17;;;;;;;18.16;77.14;102646.97;5033257;28;20032;-65
2022/07/09 05:51:25;;;;;;;37.30;24.92;;;;;;;18.12;77.37;102640.69;5031956;28;20506;-65
2022/07/09 05:53:50;;;;;;;40.10;25.15;;;;;;;18.11;77.69;102641.56;5033098;28;20026;-65
2022/07/09 05:56:16;;;;;;;34.20;24.55;;;;;;;18.17;77.07;102638.06;5032989;28;20021;-65
2022/07/09 05:58:41;;;;;;;34.03;26.20;;;;;;;18.25;77.69;102641.69;5032881;28;20025;-65
2022/07/09 06:01:07;;;;;;;34.53;26.75;;;;;;;18.43;77.91;102636.47;5032998;28;20109;-65
2022/07/09 06:03:32;;;;;;;31.58;24.65;;;;;;;18.66;77.72;102641.97;5033283;28;20117;-65
2022/07/09 06:05:58;;;;;;;31.92;24.70;;;;;;;18.81;76.61;102637.63;5032915;28;20025;-65
2022/07/09 06:08:24;;;;;;;32.22;23.90;;;;;;;18.92;75.22;102643.91;5033291;28;20025;-65
2022/07/09 06:10:50;;;;;;;32.88;24.20;;;;;;;18.92;75.88;102646.59;5033378;28;20021;-65
2022/07/09 06:13:15;;;;;;;32.47;23.80;;;;;;;19.10;75.11;102648.47;5032937;28;20024;-66
2022/07/09 06:15:41;;;;;;;31.05;24.05;;;;;;;19.13;74.25;102643.13;5032571;28;20061;-65
2022/07/09 06:18:06;;;;;;;31.88;24.50;;;;;;;19.12;73.74;102647.59;5032862;28;20053;-65
2022/07/09 06:20:32;;;;;;;29.50;24.30;;;;;;;19.24;74.25;102655.69;5033293;28;20475;-66
2022/07/09 06:22:57;;;;;;;29.70;23.92;;;;;;;19.30;73.27;102656.59;5032890;28;20391;-65
2022/07/09 06:25:23;;;;;;;34.78;25.38;;;;;;;19.34;73.64;102653.91;5031843;28;20040;-65
2022/07/09 06:27:48;;;;;;;30.65;23.05;;;;;;;19.46;73.40;102653.06;5032605;28;20368;-65
2022/07/09 06:30:14;;;;;;;31.65;24.65;;;;;;;19.50;73.63;102654.88;5032854;28;20030;-65
2022/07/09 06:32:39;;;;;;;29.20;22.30;;;;;;;19.67;72.83;102663.00;5032747;28;20029;-65
2022/07/09 06:35:05;;;;;;;31.60;24.10;;;;;;;19.71;72.89;102659.44;5032775;28;20033;-65
2022/07/09 06:37:30;;;;;;;34.20;25.58;;;;;;;19.64;73.17;102661.19;5032608;28;20025;-65
2022/07/09 06:39:57;;;;;;;31.80;23.92;;;;;;;19.69;72.44;102654.03;5032864;28;20417;-65
2022/07/09 06:42:23;;;;;;;31.67;23.25;;;;;;;19.76;72.58;102655.84;5032723;28;20108;-65
2022/07/09 06:44:48;;;;;;;30.35;22.48;;;;;;;19.93;71.94;102650.50;5032967;28;20125;-65
2022/07/09 06:47:13;;;;;;;33.03;24.60;;;;;;;20.09;71.87;102647.84;5035645;28;20040;-65
2022/07/09 06:49:39;;;;;;;34.92;23.90;;;;;;;20.15;71.22;102656.78;5036656;28;20026;-65
2022/07/09 06:52:05;;;;;;;32.03;23.85;;;;;;;20.31;70.58;102657.66;5036417;28;20481;-65
2022/07/09 06:54:31;;;;;;;28.50;22.95;;;;;;;20.42;70.29;102663.00;5036144;28;20028;-65
2022/07/09 06:56:56;;;;;;;30.90;23.23;;;;;;;20.46;70.04;102654.94;5036278;28;20026;-65
2022/07/09 06:59:23;;;;;;;32.30;24.33;;;;;;;20.58;70.56;102643.34;5034881;28;20108;-65
2022/07/09 07:01:49;;;;;;;31.70;22.77;;;;;;;20.85;69.60;102647.72;5036220;28;20033;-65
2022/07/09 07:04:14;;;;;;;27.85;23.52;;;;;;;21.19;68.34;102650.28;5036262;28;20026;-65
2022/07/09 07:06:45;;;;;;;27.92;23.30;;;;;;;21.49;66.66;102644.78;5036018;28;20032;-65
2022/07/09 07:09:10;;;;;;;30.00;21.10;;;;;;;21.69;66.23;102646.47;5036144;28;20462;-65
2022/07/09 07:11:35;;;;;;;27.00;20.80;;;;;;;21.91;65.38;102641.81;5035994;28;20113;-66
2022/07/09 07:14:01;;;;;;;20.95;18.05;;;;;;;22.19;64.87;102656.00;5035816;28;20486;-65
2022/07/09 07:16:27;;;;;;;23.02;18.02;;;;;;;22.39;62.92;102655.78;5035779;28;20120;-65
2022/07/09 07:18:53;;;;;;;21.30;16.52;;;;;;;22.46;61.62;102653.03;5036012;28;20033;-65
2022/07/09 07:21:18;;;;;;;24.05;15.63;;;;;;;22.60;61.03;102644.81;5035986;28;20375;-65
2022/07/09 07:23:43;;;;;;;22.85;15.50;;;;;;;22.94;61.71;102644.47;5035721;28;20104;-65
2022/07/09 07:26:09;;;;;;;17.48;14.43;;;;;;;23.24;60.77;102644.06;5034414;28;20041;-65
2022/07/09 07:28:34;;;;;;;19.13;14.23;;;;;;;23.36;59.35;102650.22;5035507;28;20068;-65
2022/07/09 07:31:00;;;;;;;15.98;13.15;;;;;;;23.51;58.20;102644.63;5035719;28;20022;-65
2022/07/09 07:33:25;;;;;;;16.60;14.10;;;;;;;23.54;58.58;102646.34;5035420;28;20026;-65
2022/07/09 07:35:51;;;;;;;18.08;12.25;;;;;;;23.63;57.59;102647.09;5034199;28;20044;-65
2022/07/09 07:38:17;;;;;;;16.80;13.13;;;;;;;23.51;57.82;102647.31;5035361;28;20422;-65
2022/07/09 07:40:42;;;;;;;19.25;13.88;;;;;;;23.30;58.55;102648.50;5035344;28;20467;-65
2022/07/09 07:43:11;;;;;;;20.35;13.90;;;;;;;23.32;58.94;102659.25;5035143;28;20112;-66
2022/07/09 07:45:36;;;;;;;17.77;13.40;;;;;;;23.34;58.88;102660.13;5035097;28;20541;-66
2022/07/09 07:48:02;;;;;;;16.45;12.57;;;;;;;23.37;58.41;102655.56;5035190;28;20026;-65
2022/07/09 07:50:27;;;;;;;17.40;12.98;;;;;;;23.24;58.72;102657.56;5035381;28;20026;-65
2022/07/09 07:52:53;;;;;;;16.63;12.40;;;;;;;23.30;59.63;102652.97;5035156;28;20057;-65
2022/07/09 07:55:18;;;;;;;21.75;13.70;;;;;;;23.37;58.80;102657.38;5034107;28;20087;-65
2022/07/09 07:57:43;;;;;;;17.90;12.73;;;;;;;23.42;58.83;102658.22;5034056;28;20025;-65
2022/07/09 08:00:10;;;;;;;17.70;12.05;;;;;;;23.33;58.41;102659.22;5035088;28;20400;-65
2022/07/09 08:02:35;;;;;;;16.95;11.77;;;;;;;23.32;58.05;102660.16;5033918;28;20034;-65
2022/07/09 08:05:01;;;;;;;17.88;12.48;;;;;;;23.26;58.94;102662.06;5035070;28;20206;-65
2022/07/09 08:07:26;;;;;;;17.30;11.98;;;;;;;23.27;58.29;102655.75;5034981;28;20045;-65
2022/07/09 08:09:53;;;;;;;17.02;12.15;;;;;;;23.23;58.28;102655.78;5033551;28;20506;-65
2022/07/09 08:12:19;;;;;;;15.73;11.35;;;;;;;23.24;58.24;102648.56;5034590;28;20025;-65
2022/07/09 08:14:44;;;;;;;15.52;11.88;;;;;;;23.29;57.43;102638.59;5034674;28;20084;-65
2022/07/09 08:17:10;;;;;;;17.40;11.85;;;;;;;23.38;58.08;102635.81;5034585;28;20060;-65
2022/07/09 08:19:35;;;;;;;19.02;13.40;;;;;;;23.65;57.02;102634.53;5033335;28;20026;-66
2022/07/09 08:22:01;;;;;;;18.55;13.15;;;;;;;23.75;56.14;102635.28;5034670;28;20036;-65
2022/07/09 08:24:26;;;;;;;18.42;13.73;;;;;;;23.85;55.91;102628.78;5034630;28;20025;-65
2022/07/09 08:26:52;;;;;;;17.80;14.18;;;;;;;23.85;55.36;102623.41;5034412;28;20069;-66
2022/07/09 08:29:17;;;;;;;20.13;14.50;;;;;;;23.86;56.02;102609.00;5034351;28;20030;-65
2022/07/09 08:31:43;;;;;;;20.08;13.30;;;;;;;23.93;54.98;102607.97;5034366;28;20152;-65
2022/07/09 08:34:08;;;;;;;18.58;13.02;;;;;;;24.22;54.62;102593.94;5034311;28;20474;-65
2022/07/09 08:36:34;;;;;;;16.38;12.93;;;;;;;24.64;52.93;102601.31;5034370;28;20033;-65
2022/07/09 08:38:59;;;;;;;18.67;13.65;;;;;;;24.97;53.36;102606.03;5034233;28;20509;-65
2022/07/09 08:41:25;;;;;;;17.65;14.90;;;;;;;25.20;52.71;102599.25;5033951;28;20075;-66
2022/07/09 08:43:51;;;;;;;19.10;15.25;;;;;;;25.08;53.63;102603.09;5034368;28;20057;-65
2022/07/09 08:46:18;;;;;;;22.75;14.02;;;;;;;25.10;53.45;102600.41;5033650;28;20034;-65
2022/07/09 08:48:44;;;;;;;19.95;13.48;;;;;;;25.07;51.48;102595.00;5034254;28;20092;-66
2022/07/09 08:51:10;;;;;;;18.75;13.18;;;;;;;25.17;51.50;102593.91;5033924;28;20044;-65
2022/07/09 08:53:41;;;;;;;18.40;13.38;;;;;;;25.15;52.89;102607.47;5034009;28;20033;-65
2022/07/09 08:56:08;;;;;;;19.23;14.43;;;;;;;25.15;52.01;102591.25;5033620;28;20033;-65
2022/07/09 08:58:33;;;;;;;16.77;13.18;;;;;;;25.14;51.96;102594.88;5032585;28;20283;-66
2022/07/09 09:00:59;;;;;;;17.60;14.43;;;;;;;24.95;52.26;102593.44;5034219;28;20014;-65
2022/07/09 09:03:25;;;;;;;19.00;14.65;;;;;;;24.84;53.05;102601.81;5033754;28;20502;-65
2022/07/09 09:06:05;;;;;;;42.45;13.48;;;;;;;24.60;53.31;102595.06;5034029;28;20382;-65
2022/07/09 09:08:37;;;;;;;19.08;13.35;;;;;;;24.44;53.92;102597.19;5031856;28;20421;-66
2022/07/09 09:11:04;;;;;;;17.15;12.20;;;;;;;24.42;53.88;102604.44;5033751;28;20025;-64
2022/07/09 09:13:30;;;;;;;19.20;13.57;;;;;;;24.36;54.34;102601.78;5033198;28;20067;-63
2022/07/09 09:16:06;;;;;;;17.40;13.85;;;;;;;24.34;54.81;102602.75;5033749;28;20033;-64
2022/07/09 09:18:34;;;;;;;21.95;14.38;;;;;;;24.20;55.61;102600.31;5033627;28;20029;-63
2022/07/09 09:21:07;;;;;;;23.73;13.98;;;;;;;24.31;55.46;102597.41;5033288;28;20021;-64
2022/07/09 09:23:53;;;;;;;21.67;14.75;;;;;;;24.26;55.97;102597.50;5033408;28;20573;-64
2022/07/09 09:26:24;;;;;;;17.02;13.30;;;;;;;24.18;55.94;102591.34;5032890;28;20029;-64
2022/07/09 09:29:01;;;;;;;20.75;13.07;;;;;;;24.23;55.75;102589.44;5033277;28;20041;-64
2022/07/09 09:31:34;;;;;;;17.52;13.75;;;;;;;24.21;55.79;102589.47;5033233;28;20489;-64
2022/07/09 09:34:08;;;;;;;18.75;14.32;;;;;;;24.10;56.34;102596.88;5033243;28;20383;-64
2022/07/09 09:36:35;;;;;;;20.55;13.18;;;;;;;24.17;56.34;102593.16;5033230;28;20471;-64
2022/07/09 09:39:12;;;;;;;23.17;12.57;;;;;;;24.21;55.89;102592.19;5033336;28;20065;-64
2022/07/09 09:41:38;;;;;;;17.33;10.88;;;;;;;24.22;55.72;102596.66;5031959;28;20075;-64
2022/07/09 09:44:08;;;;;;;16.98;9.60;;;;;;;24.21;54.51;102596.69;5032937;28;20449;-64
2022/07/09 09:46:35;;;;;;;18.48;10.07;;;;;;;24.13;54.87;102588.72;5033084;28;20030;-64
2022/07/09 09:49:05;;;;;;;15.90;9.52;;;;;;;24.10;54.90;102596.00;5033127;28;20502;-64
2022/07/09 09:51:33;;;;;;;15.40;9.60;;;;;;;23.96;55.11;102594.41;5033083;28;20040;-64
2022/07/09 09:54:01;;;;;;;12.35;9.68;;;;;;;23.92;55.43;102591.81;5032995;28;20030;-64
2022/07/09 09:56:28;;;;;;;16.27;10.75;;;;;;;23.78;55.50;102593.84;5032728;28;20037;-64
2022/07/09 09:58:55;;;;;;;16.92;10.10;;;;;;;23.64;55.65;102592.25;5033028;28;20033;-64
2022/07/09 10:01:20;;;;;;;17.02;11.80;;;;;;;23.66;56.19;102589.53;5032916;28;20025;-64
2022/07/09 10:03:46;;;;;;;17.10;11.07;;;;;;;23.71;56.70;102588.53;5032742;28;20034;-64
2022/07/09 10:06:12;;;;;;;20.27;11.90;;;;;;;23.72;56.15;102590.34;5032955;28;20029;-64
2022/07/09 10:08:38;;;;;;;15.75;10.80;;;;;;;23.75;56.69;102589.38;5032728;28;20030;-64
2022/07/09 10:11:04;;;;;;;18.17;10.45;;;;;;;23.79;56.47;102588.41;5032783;28;20057;-65
2022/07/09 10:13:29;;;;;;;16.05;10.77;;;;;;;23.89;56.36;102591.84;5032396;28;20690;-65
2022/07/09 10:15:55;;;;;;;18.00;10.95;;;;;;;23.95;56.84;102587.25;5032904;28;20034;-64
2022/07/09 10:18:20;;;;;;;16.80;11.07;;;;;;;24.06;56.60;102583.44;5032617;28;20071;-64
2022/07/09 10:20:46;;;;;;;14.75;10.50;;;;;;;24.15;55.92;102577.88;5035021;28;20171;-64
2022/07/09 10:23:24;;;;;;;14.63;10.07;;;;;;;24.37;55.14;102573.00;5037203;28;20036;-64
2022/07/09 10:25:57;;;;;;;19.65;9.75;;;;;;;24.37;54.06;102570.28;5036432;28;20018;-64
2022/07/09 10:28:25;;;;;;;14.90;8.75;;;;;;;24.21;55.91;102577.78;5036965;28;20109;-64
2022/07/09 10:30:51;;;;;;;14.57;8.05;;;;;;;24.14;55.98;102578.81;5036926;28;20060;-64
2022/07/09 10:33:23;;;;;;;13.45;7.80;;;;;;;24.27;56.50;102584.88;5037033;28;20029;-64
2022/07/09 10:35:54;;;;;;;10.05;6.97;;;;;;;24.30;55.24;102584.81;5036420;28;20052;-64
2022/07/09 10:38:24;;;;;;;10.30;6.70;;;;;;;24.53;53.81;102579.00;5036816;28;20242;-64
2022/07/09 10:40:59;;;;;;;10.40;6.90;;;;;;;24.78;55.65;102580.28;5036571;28;20025;-64
2022/07/09 10:43:57;;;;;;;9.70;6.30;;;;;;;25.05;54.27;102567.97;5036368;28;20074;-64
2022/07/09 10:46:22;;;;;;;9.88;6.00;;;;;;;25.08;53.43;102567.94;5003175;28;20494;-64
2022/07/09 10:48:48;;;;;;;16.15;6.60;;;;;;;25.13;52.17;102570.53;5036203;28;20033;-66
2022/07/09 10:51:23;;;;;;;12.20;5.78;;;;;;;25.70;51.57;102575.53;5035090;28;20130;-64
2022/07/09 10:53:48;;;;;;;9.32;5.20;;;;;;;26.15;48.48;102570.75;5036262;28;20033;-64
2022/07/09 10:56:18;;;;;;;9.95;4.95;;;;;;;26.52;48.47;102566.16;5036015;28;20033;-64
2022/07/09 10:58:47;;;;;;;10.65;4.88;;;;;;;26.67;47.68;102569.31;5036266;28;20030;-64
2022/07/09 11:01:19;;;;;;;8.00;4.60;;;;;;;26.84;48.64;102576.06;5035946;28;20033;-64
2022/07/09 11:03:48;;;;;;;;;;;;;;;27.08;47.65;102569.91;5036433;28;20033;-64
2022/07/09 11:06:13;;;;;;;7.57;4.13;;;;;;;27.00;46.22;102573.78;5036011;28;20123;-64
2022/07/09 11:08:38;;;;;;;7.40;3.67;;;;;;;27.14;45.83;102560.69;5036376;28;20116;-64
2022/07/09 11:11:04;;;;;;;7.30;3.83;;;;;;;27.12;45.63;102568.91;5035842;28;20072;-64